Terminal Aerodrome Forecast
Issued by NWS

Home | Current Version | Previous Version | Text Only | Print | Product List | Glossary On
Versions: 1 2 3 4 5 6 7 8 9 10 11 12 13
000
FTUS44 KLZK 230026 AAA
TAFLIT
TAF AMD
KLIT 230026Z 2300/2324 24006KT P6SM VCSH SCT050 SCT250
     FM230600 34007KT P6SM VCTS SCT050CB BKN100 OVC250
      TEMPO 2308/2312 VRB10G25KT 5SM -TSRA BKN050CB OVC080
     FM231200 01004KT P6SM VCSH SCT030 BKN050 OVC100=

USA.gov is the U.S. government's official web portal to all federal, state and local government web resources and services.